27. Mai 2022

Uhrzeit Code Wetter Temp. Sichtweite Wolkendecke Wind METAR/SPECI
12:50 pm
V
64 °F 6¼ mi+ 3.800 ft 250° 250° 10 kt METAR EDDS 271050Z AUTO 25010KT 210V280 9999 BKN038 BKN045 18/10 Q1022 NOSIG
12:20 pm
V
63 °F 6¼ mi+ 3.300 ft 260° 260° 10 kt METAR EDDS 271020Z AUTO 26010KT 9999 BKN033 BKN043 17/09 Q1022 NOSIG
11:50 am
V
61 °F 6¼ mi+ 3.000 ft 280° 280° 12 kt METAR EDDS 270950Z AUTO 28012KT 9999 FEW026 BKN030 BKN040 16/10 Q1023 NOSIG
11:20 am
M
61 °F 6¼ mi+ 2.400 ft 260° 260° 8 kt METAR EDDS 270920Z AUTO 26008KT 220V290 9999 BKN024 BKN034 OVC040 16/11 Q1023 NOSIG
10:50 am
M
61 °F 6¼ mi+ 2.300 ft 260° 260° 7 kt METAR EDDS 270850Z AUTO 26007KT 210V280 9999 BKN023 OVC032 16/10 Q1023 NOSIG
10:20 am
M
59 °F 6¼ mi+ 2.200 ft 280° 280° 6 kt METAR EDDS 270820Z AUTO 28006KT 9999 BKN022 OVC030 15/10 Q1022 NOSIG
9:50 am
M
59 °F 6¼ mi+ 2.200 ft 260° 260° 7 kt METAR EDDS 270750Z AUTO 26007KT 9999 BKN022 15/10 Q1022 NOSIG
9:20 am
M
59 °F 6¼ mi+ 2.300 ft 250° 250° 6 kt METAR EDDS 270720Z AUTO 25006KT 9999 OVC023 15/10 Q1022
8:50 am
M
59 °F 6¼ mi+ 2.400 ft 240° 240° 5 kt METAR EDDS 270650Z AUTO 24005KT 190V270 9999 OVC024 15/10 Q1022 NOSIG
8:20 am
M
57 °F 6¼ mi+ 2.600 ft 240° 240° 5 kt METAR EDDS 270620Z AUTO 24005KT 190V290 9999 OVC026 14/10 Q1022 NOSIG
7:50 am
M
57 °F 6¼ mi+ 2.400 ft 230° 230° 4 kt METAR EDDS 270550Z AUTO 23004KT 160V290 9999 BKN024 14/10 Q1022 NOSIG
7:20 am
V
55 °F 6¼ mi+ - 240° 240° 8 kt METAR EDDS 270520Z AUTO 24008KT 210V280 9999 SCT025 13/09 Q1022 NOSIG
6:50 am
M
54 °F 6¼ mi+ 2.600 ft 240° 240° 5 kt METAR EDDS 270450Z AUTO 24005KT 190V290 9999 BKN026 12/09 Q1022 NOSIG
6:20 am
M
54 °F 6¼ mi+ 2.800 ft 240° 240° 3 kt METAR EDDS 270420Z AUTO 24003KT 190V270 9999 BKN028 12/09 Q1022 NOSIG
5:50 am
M
50 °F 6¼ mi+ 2.800 ft 270° 270° 4 kt METAR EDDS 270350Z AUTO 27004KT 9999 BKN028 10/08 Q1022
5:20 am
V
50 °F 6¼ mi+ - 260° 260° 3 kt METAR EDDS 270320Z AUTO 26003KT 220V290 9999 FEW029 10/08 Q1022
4:50 am
V
52 °F 6¼ mi+ - 260° 260° 3 kt METAR EDDS 270250Z AUTO 26003KT CAVOK 11/08 Q1022
4:20 am
V
52 °F 6¼ mi+ - 250° 250° 3 kt METAR EDDS 270220Z AUTO 25003KT 210V280 CAVOK 11/08 Q1022
3:50 am
V
52 °F 6¼ mi+ - 270° 270° 6 kt METAR EDDS 270150Z AUTO 27006KT CAVOK 11/08 Q1023
3:20 am
V
52 °F 6¼ mi+ - 260° 260° 3 kt METAR EDDS 270120Z AUTO 26003KT 220V280 CAVOK 11/08 Q1023
2:50 am
V
52 °F 6¼ mi+ - 270° 270° 6 kt METAR EDDS 270050Z AUTO 27006KT CAVOK 11/08 Q1023
2:20 am
V
54 °F 6¼ mi+ - 250° 250° 4 kt METAR EDDS 270020Z AUTO 25004KT 220V280 CAVOK 12/09 Q1023
1:50 am
V
54 °F 6¼ mi+ - 250° 250° 4 kt METAR EDDS 262350Z AUTO 25004KT CAVOK 12/09 Q1023
1:20 am
V
54 °F 6¼ mi+ - 270° 270° 6 kt METAR EDDS 262320Z AUTO 27006KT CAVOK 12/09 Q1024
12:50 am
V
54 °F 6¼ mi+ - 270° 270° 5 kt METAR EDDS 262250Z AUTO 27005KT CAVOK 12/09 Q1024
12:20 am
V
54 °F 6¼ mi+ - 250° 250° 4 kt METAR EDDS 262220Z AUTO 25004KT CAVOK 12/09 Q1024

26. Mai 2022

Uhrzeit Code Wetter Temp. Sichtweite Wolkendecke Wind METAR/SPECI
11:50 pm
V
54 °F 6¼ mi+ - 240° 240° 4 kt METAR EDDS 262150Z AUTO 24004KT 220V280 CAVOK 12/09 Q1024
11:20 pm
V
55 °F 6¼ mi+ - 260° 260° 3 kt METAR EDDS 262120Z AUTO 26003KT CAVOK 13/09 Q1024
10:50 pm
V
57 °F 6¼ mi+ - 260° 260° 3 kt METAR EDDS 262050Z AUTO 26003KT CAVOK 14/09 Q1024
10:20 pm
V
59 °F 6¼ mi+ - 290° 290° 4 kt METAR EDDS 262020Z AUTO 29004KT CAVOK 15/09 Q1024
9:50 pm
V
61 °F 6¼ mi+ - 290° 290° 5 kt METAR EDDS 261950Z AUTO 29005KT 9999 SCT044 16/09 Q1024 NOSIG
9:20 pm
V
61 °F 6¼ mi+ 4.500 ft 300° 300° 5 kt METAR EDDS 261920Z AUTO 30005KT 9999 BKN045 16/09 Q1023 NOSIG
8:50 pm
V
64 °F 6¼ mi+ 4.400 ft 280° 280° 7 kt METAR EDDS 261850Z AUTO 28007KT 9999 BKN044 18/09 Q1023 NOSIG
8:20 pm
V
64 °F 6¼ mi+ - 250° 250° 6 kt METAR EDDS 261820Z AUTO 25006KT 9999 SCT044 18/09 Q1023 NOSIG
7:50 pm
V
64 °F 6¼ mi+ 4.500 ft 260° 260° 6 kt METAR EDDS 261750Z AUTO 26006KT 170V290 9999 BKN045 18/09 Q1023 NOSIG
7:20 pm
V
64 °F 6¼ mi+ - 280° 280° 8 kt METAR EDDS 261720Z AUTO 28008KT 9999 SCT044 18/09 Q1023 NOSIG
6:50 pm
V
64 °F 6¼ mi+ - 260° 260° 9 kt METAR EDDS 261650Z AUTO 26009KT 230V290 CAVOK 18/09 Q1023 NOSIG
6:20 pm
V
66 °F 6¼ mi+ - 270° 270° 11 kt METAR EDDS 261620Z AUTO 27011KT CAVOK 19/09 Q1023 NOSIG
5:50 pm
V
68 °F 6¼ mi+ - 290° 290° 11 kt METAR EDDS 261550Z AUTO 29011KT 250V320 CAVOK 20/10 Q1023 NOSIG
5:20 pm
V
66 °F 6¼ mi+ - 280° 280° 10 kt METAR EDDS 261520Z AUTO 28010KT 250V310 CAVOK 19/09 Q1023 NOSIG
4:50 pm
V
66 °F 6¼ mi+ - 300° 300° 13 kt METAR EDDS 261450Z AUTO 30013KT 270V330 CAVOK 19/09 Q1024 NOSIG
4:20 pm
V
66 °F 6¼ mi+ - 300° 300° 10 kt METAR EDDS 261420Z AUTO 30010KT CAVOK 19/10 Q1024 NOSIG
3:50 pm
V
66 °F 6¼ mi+ - 270° 270° 11 kt METAR EDDS 261350Z AUTO 27011KT 240V320 9999 FEW041 19/09 Q1024 NOSIG
3:20 pm
V
66 °F 6¼ mi+ - 260° 260° 8 kt METAR EDDS 261320Z AUTO 26008KT 230V300 9999 FEW038 19/10 Q1024
2:50 pm
V
64 °F 6¼ mi+ - 290° 290° 11 kt METAR EDDS 261250Z AUTO 29011KT 9999 FEW040 18/09 Q1025 NOSIG
2:20 pm
V
64 °F 6¼ mi+ - 260° 260° 8 kt METAR EDDS 261220Z AUTO 26008KT 210V290 9999 FEW042 18/09 Q1025 NOSIG
1:50 pm
V
63 °F 6¼ mi+ 4.900 ft 260° 260° 7 kt METAR EDDS 261150Z AUTO 26007KT 220V290 9999 FEW039 OVC049 17/09 Q1025 NOSIG
1:20 pm
V
63 °F 6¼ mi+ 4.800 ft 270° 270° 9 kt METAR EDDS 261120Z AUTO 27009KT 9999 OVC048 17/08 Q1024 NOSIG
12:50 pm
V
63 °F 6¼ mi+ 4.900 ft 270° 270° 10 kt METAR EDDS 261050Z AUTO 27010KT 9999 OVC049 17/09 Q1024 NOSIG
12:20 pm
V
63 °F 6¼ mi+ 4.800 ft 260° 260° 10 kt METAR EDDS 261020Z AUTO 26010KT 9999 OVC048 17/08 Q1024 NOSIG
11:50 am
V
63 °F 6¼ mi+ - 260° 260° 8 kt METAR EDDS 260950Z AUTO 26008KT 230V290 9999 SCT045 17/08 Q1024 NOSIG
11:20 am
V
63 °F 6¼ mi+ - 270° 270° 10 kt METAR EDDS 260920Z AUTO 27010KT 230V290 9999 FEW044 17/08 Q1024 NOSIG
10:50 am
V
63 °F 6¼ mi+ - 260° 260° 10 kt METAR EDDS 260850Z AUTO 26010KT 220V290 CAVOK 17/08 Q1024 NOSIG
10:20 am
V
63 °F 6¼ mi+ - 270° 270° 12 kt METAR EDDS 260820Z AUTO 27012KT CAVOK 17/08 Q1024 NOSIG
9:50 am
V
61 °F 6¼ mi+ - 250° 250° 8 kt METAR EDDS 260750Z AUTO 25008KT 160V290 CAVOK 16/08 Q1024 NOSIG
9:20 am
V
63 °F 6¼ mi+ - 230° 230° 6 kt METAR EDDS 260720Z AUTO 23006KT 140V300 CAVOK 17/08 Q1023 NOSIG
8:50 am
V
61 °F 6¼ mi+ - Var Var 4 kt METAR EDDS 260650Z AUTO VRB04KT CAVOK 16/08 Q1023 NOSIG
8:20 am
V
59 °F 6¼ mi+ - 230° 230° 6 kt METAR EDDS 260620Z AUTO 23006KT 180V320 CAVOK 15/09 Q1023 NOSIG
7:50 am
V
57 °F 6¼ mi+ - 240° 240° 7 kt METAR EDDS 260550Z AUTO 24007KT 200V270 CAVOK 14/08 Q1023 NOSIG
7:20 am
V
55 °F 6¼ mi+ - 240° 240° 7 kt METAR EDDS 260520Z AUTO 24007KT 190V280 CAVOK 13/08 Q1023 NOSIG
6:50 am
V
54 °F 6¼ mi+ - 240° 240° 4 kt METAR EDDS 260450Z AUTO 24004KT 200V270 CAVOK 12/07 Q1022 NOSIG
6:20 am
V
50 °F 6¼ mi+ - Var Var 1 kt METAR EDDS 260420Z AUTO VRB01KT CAVOK 10/07 Q1022 NOSIG
5:50 am
V
48 °F 6¼ mi+ - Var Var 2 kt METAR EDDS 260350Z AUTO VRB02KT CAVOK 09/06 Q1022
5:20 am
V
48 °F 6¼ mi+ - Var Var 2 kt METAR EDDS 260320Z AUTO VRB02KT CAVOK 09/06 Q1022
4:50 am
V
50 °F 6¼ mi+ - Var Var 2 kt METAR EDDS 260250Z AUTO VRB02KT CAVOK 10/07 Q1022
4:20 am
V
54 °F 6¼ mi+ - Var Var 2 kt METAR EDDS 260220Z AUTO VRB02KT CAVOK 12/07 Q1022
3:50 am
V
50 °F 6¼ mi+ - Var Var 2 kt METAR EDDS 260150Z AUTO VRB02KT CAVOK 10/07 Q1022
3:20 am
V
54 °F 6¼ mi+ - 230° 230° 3 kt METAR EDDS 260120Z AUTO 23003KT 170V300 CAVOK 12/07 Q1022
2:50 am
V
54 °F 6¼ mi+ - Var Var 1 kt METAR EDDS 260050Z AUTO VRB01KT CAVOK 12/07 Q1022
2:20 am
V
52 °F 6¼ mi+ - 260° 260° 6 kt METAR EDDS 260020Z AUTO 26006KT CAVOK 11/07 Q1022
1:50 am
V
52 °F 6¼ mi+ - 260° 260° 4 kt METAR EDDS 252350Z AUTO 26004KT CAVOK 11/07 Q1022
1:20 am
V
52 °F 6¼ mi+ - 290° 290° 3 kt METAR EDDS 252320Z AUTO 29003KT 230V310 CAVOK 11/07 Q1021
12:50 am
V
52 °F 6¼ mi+ - 260° 260° 3 kt METAR EDDS 252250Z AUTO 26003KT 230V310 CAVOK 11/07 Q1021
12:20 am
V
54 °F 6¼ mi+ - 240° 240° 3 kt METAR EDDS 252220Z AUTO 24003KT CAVOK 12/07 Q1021

25. Mai 2022

Uhrzeit Code Wetter Temp. Sichtweite Wolkendecke Wind METAR/SPECI
11:50 pm
V
54 °F 6¼ mi+ - Var Var 2 kt METAR EDDS 252150Z AUTO VRB02KT CAVOK 12/07 Q1021
11:20 pm
V
57 °F 6¼ mi+ - 240° 240° 3 kt METAR EDDS 252120Z AUTO 24003KT CAVOK 14/07 Q1021
10:50 pm
V
59 °F 6¼ mi+ - 230° 230° 3 kt METAR EDDS 252050Z AUTO 23003KT CAVOK 15/07 Q1021
10:20 pm
V
59 °F 6¼ mi+ - 240° 240° 3 kt METAR EDDS 252020Z AUTO 24003KT CAVOK 15/07 Q1020
9:50 pm
V
61 °F 6¼ mi+ - Var Var 2 kt METAR EDDS 251950Z AUTO VRB02KT CAVOK 16/07 Q1020 NOSIG
9:20 pm
V
63 °F 6¼ mi+ - 310° 310° 4 kt METAR EDDS 251920Z AUTO 31004KT CAVOK 17/07 Q1019 NOSIG
8:50 pm
V
64 °F 6¼ mi+ - 310° 310° 6 kt METAR EDDS 251850Z AUTO 31006KT CAVOK 18/07 Q1019 NOSIG
8:20 pm
V
64 °F 6¼ mi+ - 320° 320° 8 kt METAR EDDS 251820Z AUTO 32008KT CAVOK 18/07 Q1018 NOSIG
7:50 pm
V
66 °F 6¼ mi+ - 330° 330° 8 kt METAR EDDS 251750Z AUTO 33008KT CAVOK 19/07 Q1018 NOSIG
7:20 pm
V
66 °F 6¼ mi+ - 350° 350° 6 kt METAR EDDS 251720Z AUTO 35006KT 320V020 CAVOK 19/07 Q1018 NOSIG
6:50 pm
V
68 °F 6¼ mi+ - 330° 330° 7 kt METAR EDDS 251650Z AUTO 33007KT 290V350 CAVOK 20/07 Q1017 NOSIG
6:20 pm
V
68 °F 6¼ mi+ - 330° 330° 8 kt METAR EDDS 251620Z AUTO 33008KT 310V010 CAVOK 20/07 Q1017 NOSIG
5:50 pm
V
70 °F 6¼ mi+ - 360° 360° 6 kt METAR EDDS 251550Z AUTO 36006KT 330V060 CAVOK 21/06 Q1017
5:20 pm
V
68 °F 6¼ mi+ - 020° 020° 10 kt METAR EDDS 251520Z AUTO 02010KT CAVOK 20/07 Q1017 NOSIG
4:50 pm
V
68 °F 6¼ mi+ - 020° 020° 6 kt METAR EDDS 251450Z AUTO 02006KT 350V100 CAVOK 20/06 Q1017
4:20 pm
V
70 °F 6¼ mi+ - 010° 010° 5 kt METAR EDDS 251420Z AUTO 01005KT 330V070 CAVOK 21/08 Q1017 NOSIG
3:50 pm
V
68 °F 6¼ mi+ - Var Var 2 kt METAR EDDS 251350Z AUTO VRB02KT CAVOK 20/07 Q1017 NOSIG
3:20 pm
V
68 °F 6¼ mi+ - 320° 320° 4 kt METAR EDDS 251320Z AUTO 32004KT 280V360 CAVOK 20/06 Q1017 NOSIG
2:50 pm
V
70 °F 6¼ mi+ - Var Var 5 kt METAR EDDS 251250Z AUTO VRB05KT CAVOK 21/08 Q1017 NOSIG
2:20 pm
V
66 °F 6¼ mi+ - Var Var 6 kt METAR EDDS 251220Z AUTO VRB06KT CAVOK 19/07 Q1018 NOSIG
1:50 pm
V
64 °F 6¼ mi+ 4.800 ft Var Var 5 kt METAR EDDS 251150Z AUTO VRB05KT 9999 BKN048 18/07 Q1018 NOSIG
1:20 pm
V
66 °F 6¼ mi+ - Var Var 3 kt METAR EDDS 251120Z AUTO VRB03KT 9999 FEW047 19/07 Q1018 NOSIG
12:50 pm
V
66 °F 6¼ mi+ - Var Var 2 kt METAR EDDS 251050Z AUTO VRB02KT CAVOK 19/08 Q1018 NOSIG
Ältere Daten

Laden Sie unsere App herunter

Einfacher Zugriff auf das gesamte Flugwetter auf Ihrem Mobiltelefon und Tablet.
Mit vielen Funktionen, die auf der Website nicht verfügbar sind, wie Offline-Unterstützung und eine persönliche Flughafenliste.

Wir und Dritte verfolgen dein Internetverhalten auf unserer Website mit Cookies. Wenn du fortfährst, gehen wir davon aus, dass du mit unserer Cookie-Richtlinie einverstanden bist. Mehr erfahren